Exminster, United Kingdom
Current Conditions -  °F | °C
As of 2:20 PM on Sunday 23 Nov 2014 (Local Time) from EGTE Reporting Station
Few Clouds Few Clouds  
Wind Chill: 50°   Ceiling: Unl
Heat Index: 50°   Visibility: 6mi
Dew Point: 43°   Wind: 13mph
Humidity: 76%   Direction: 340°NNW
Pressure: 30.06"   Gusts: NA
Location:  50.68°N, 3.5°W
Report Text: EGTE 231420Z 34011KT 9999 FEW020 10/06 Q1018
Loading
Personal Weather Stations






























Interactive Weather Map New forecast layout! Learn more

10-Day Weather Forecast

Advertisements
Track Severe Weather on mobile